sensor_id;sensor_type;location;lat;lon;timestamp;P1;P2;P0
55043;PMS5003;54902;50.420;18.854;2023-02-22T00:00:17;16;16;9
55043;PMS5003;54902;50.420;18.854;2023-02-22T00:01:04;16;16;9
55043;PMS5003;54902;50.420;18.854;2023-02-22T00:01:49;16;16;9
55043;PMS5003;54902;50.420;18.854;2023-02-22T00:02:25;16;16;9
55043;PMS5003;54902;50.420;18.854;2023-02-22T00:02:58;16;16;9
55043;PMS5003;54902;50.420;18.854;2023-02-22T00:03:30;15;15;9
55043;PMS5003;54902;50.420;18.854;2023-02-22T00:04:05;15;15;9
55043;PMS5003;54902;50.420;18.854;2023-02-22T00:04:36;15;15;9
55043;PMS5003;54902;50.420;18.854;2023-02-22T00:05:08;15;15;9
55043;PMS5003;54902;50.420;18.854;2023-02-22T00:05:40;15;15;9
55043;PMS5003;54902;50.420;18.854;2023-02-22T00:06:17;15;15;9
55043;PMS5003;54902;50.420;18.854;2023-02-22T00:06:50;15;15;9
55043;PMS5003;54902;50.420;18.854;2023-02-22T00:07:21;15;15;9
55043;PMS5003;54902;50.420;18.854;2023-02-22T00:07:53;15;15;9
55043;PMS5003;54902;50.420;18.854;2023-02-22T00:08:31;27;27;16
55043;PMS5003;54902;50.420;18.854;2023-02-22T00:09:03;27;27;16
55043;PMS5003;54902;50.420;18.854;2023-02-22T00:09:38;27;27;16
55043;PMS5003;54902;50.420;18.854;2023-02-22T00:10:09;27;27;16
55043;PMS5003;54902;50.420;18.854;2023-02-22T00:10:43;27;27;16
55043;PMS5003;54902;50.420;18.854;2023-02-22T00:11:14;27;27;16
55043;PMS5003;54902;50.420;18.854;2023-02-22T00:11:46;27;27;16
55043;PMS5003;54902;50.420;18.854;2023-02-22T00:12:18;27;27;16
55043;PMS5003;54902;50.420;18.854;2023-02-22T00:12:50;27;27;16
55043;PMS5003;54902;50.420;18.854;2023-02-22T00:13:22;27;27;16
55043;PMS5003;54902;50.420;18.854;2023-02-22T00:13:56;27;27;16
55043;PMS5003;54902;50.420;18.854;2023-02-22T00:14:26;27;27;16
55043;PMS5003;54902;50.420;18.854;2023-02-22T00:14:57;27;27;16
55043;PMS5003;54902;50.420;18.854;2023-02-22T00:15:28;27;27;16
55043;PMS5003;54902;50.420;18.854;2023-02-22T00:15:59;27;27;16
55043;PMS5003;54902;50.420;18.854;2023-02-22T00:16:31;27;27;16
55043;PMS5003;54902;50.420;18.854;2023-02-22T00:17:02;27;27;16
55043;PMS5003;54902;50.420;18.854;2023-02-22T00:17:33;27;27;16
55043;PMS5003;54902;50.420;18.854;2023-02-22T00:18:04;27;27;16
55043;PMS5003;54902;50.420;18.854;2023-02-22T00:18:36;27;27;16
55043;PMS5003;54902;50.420;18.854;2023-02-22T00:19:07;27;27;16
55043;PMS5003;54902;50.420;18.854;2023-02-22T00:19:39;27;27;16
55043;PMS5003;54902;50.420;18.854;2023-02-22T00:20:11;27;27;16
55043;PMS5003;54902;50.420;18.854;2023-02-22T00:20:43;27;27;16
55043;PMS5003;54902;50.420;18.854;2023-02-22T00:21:15;13;13;7
55043;PMS5003;54902;50.420;18.854;2023-02-22T00:21:50;13;13;7
55043;PMS5003;54902;50.420;18.854;2023-02-22T00:22:22;13;13;7
55043;PMS5003;54902;50.420;18.854;2023-02-22T00:22:53;13;13;7
55043;PMS5003;54902;50.420;18.854;2023-02-22T00:23:24;13;13;7
55043;PMS5003;54902;50.420;18.854;2023-02-22T00:23:58;13;13;7
55043;PMS5003;54902;50.420;18.854;2023-02-22T00:24:31;11;11;6
55043;PMS5003;54902;50.420;18.854;2023-02-22T00:25:02;11;11;6
55043;PMS5003;54902;50.420;18.854;2023-02-22T00:25:33;11;11;6
55043;PMS5003;54902;50.420;18.854;2023-02-22T00:26:05;11;11;6
55043;PMS5003;54902;50.420;18.854;2023-02-22T00:26:39;11;11;6
55043;PMS5003;54902;50.420;18.854;2023-02-22T00:27:10;11;11;6
55043;PMS5003;54902;50.420;18.854;2023-02-22T00:27:41;11;11;6
55043;PMS5003;54902;50.420;18.854;2023-02-22T00:28:13;11;11;6
55043;PMS5003;54902;50.420;18.854;2023-02-22T00:28:48;11;11;6
55043;PMS5003;54902;50.420;18.854;2023-02-22T00:29:23;11;11;6
55043;PMS5003;54902;50.420;18.854;2023-02-22T00:29:54;13;13;7
55043;PMS5003;54902;50.420;18.854;2023-02-22T00:30:26;13;13;7
55043;PMS5003;54902;50.420;18.854;2023-02-22T00:30:59;13;13;7
55043;PMS5003;54902;50.420;18.854;2023-02-22T00:31:29;13;13;7
55043;PMS5003;54902;50.420;18.854;2023-02-22T00:32:00;13;13;7
55043;PMS5003;54902;50.420;18.854;2023-02-22T00:32:31;13;13;7
55043;PMS5003;54902;50.420;18.854;2023-02-22T00:33:03;13;13;7
55043;PMS5003;54902;50.420;18.854;2023-02-22T00:33:37;13;13;7
55043;PMS5003;54902;50.420;18.854;2023-02-22T00:34:08;13;13;7
55043;PMS5003;54902;50.420;18.854;2023-02-22T00:34:39;13;13;7
55043;PMS5003;54902;50.420;18.854;2023-02-22T00:35:13;13;13;7
55043;PMS5003;54902;50.420;18.854;2023-02-22T00:35:45;9;9;6
55043;PMS5003;54902;50.420;18.854;2023-02-22T00:36:16;9;9;6
55043;PMS5003;54902;50.420;18.854;2023-02-22T00:36:47;9;9;6
55043;PMS5003;54902;50.420;18.854;2023-02-22T00:37:19;9;9;6
55043;PMS5003;54902;50.420;18.854;2023-02-22T00:37:51;9;9;6
55043;PMS5003;54902;50.420;18.854;2023-02-22T00:38:24;9;9;6
55043;PMS5003;54902;50.420;18.854;2023-02-22T00:38:55;9;9;6
55043;PMS5003;54902;50.420;18.854;2023-02-22T00:39:26;9;9;6
55043;PMS5003;54902;50.420;18.854;2023-02-22T00:39:57;9;9;6
55043;PMS5003;54902;50.420;18.854;2023-02-22T00:40:29;18;18;13
55043;PMS5003;54902;50.420;18.854;2023-02-22T00:41:01;18;18;13
55043;PMS5003;54902;50.420;18.854;2023-02-22T00:41:32;9;9;6
55043;PMS5003;54902;50.420;18.854;2023-02-22T00:42:03;9;9;6
55043;PMS5003;54902;50.420;18.854;2023-02-22T00:42:34;9;9;6
55043;PMS5003;54902;50.420;18.854;2023-02-22T00:43:08;9;9;6
55043;PMS5003;54902;50.420;18.854;2023-02-22T00:43:39;9;9;6
55043;PMS5003;54902;50.420;18.854;2023-02-22T00:44:10;9;9;6
55043;PMS5003;54902;50.420;18.854;2023-02-22T00:44:41;9;9;6
55043;PMS5003;54902;50.420;18.854;2023-02-22T00:45:14;9;9;6
55043;PMS5003;54902;50.420;18.854;2023-02-22T00:45:46;15;15;9
55043;PMS5003;54902;50.420;18.854;2023-02-22T00:46:18;15;15;9
55043;PMS5003;54902;50.420;18.854;2023-02-22T00:46:49;15;15;9
55043;PMS5003;54902;50.420;18.854;2023-02-22T00:47:20;15;15;9
55043;PMS5003;54902;50.420;18.854;2023-02-22T00:47:51;15;15;9
55043;PMS5003;54902;50.420;18.854;2023-02-22T00:48:25;11;11;7
55043;PMS5003;54902;50.420;18.854;2023-02-22T00:48:57;11;11;7
55043;PMS5003;54902;50.420;18.854;2023-02-22T00:49:28;11;11;7
55043;PMS5003;54902;50.420;18.854;2023-02-22T00:49:59;11;11;7
55043;PMS5003;54902;50.420;18.854;2023-02-22T00:50:30;11;11;7
55043;PMS5003;54902;50.420;18.854;2023-02-22T00:51:02;13;13;11
55043;PMS5003;54902;50.420;18.854;2023-02-22T00:51:33;13;13;11
55043;PMS5003;54902;50.420;18.854;2023-02-22T00:52:04;13;13;11
55043;PMS5003;54902;50.420;18.854;2023-02-22T00:52:36;13;13;11
55043;PMS5003;54902;50.420;18.854;2023-02-22T00:53:09;13;13;11
55043;PMS5003;54902;50.420;18.854;2023-02-22T00:53:40;13;13;11
55043;PMS5003;54902;50.420;18.854;2023-02-22T00:54:11;12;12;10
55043;PMS5003;54902;50.420;18.854;2023-02-22T00:54:45;12;12;10
55043;PMS5003;54902;50.420;18.854;2023-02-22T00:55:17;12;12;10
55043;PMS5003;54902;50.420;18.854;2023-02-22T00:55:51;12;12;10
55043;PMS5003;54902;50.420;18.854;2023-02-22T00:56:23;19;19;14
55043;PMS5003;54902;50.420;18.854;2023-02-22T00:56:54;19;19;14
55043;PMS5003;54902;50.420;18.854;2023-02-22T00:57:25;19;19;14
55043;PMS5003;54902;50.420;18.854;2023-02-22T00:57:56;19;19;14
55043;PMS5003;54902;50.420;18.854;2023-02-22T00:58:28;19;19;14
55043;PMS5003;54902;50.420;18.854;2023-02-22T00:58:59;19;19;14
55043;PMS5003;54902;50.420;18.854;2023-02-22T00:59:30;19;19;14
55043;PMS5003;54902;50.420;18.854;2023-02-22T01:00:02;19;19;14
55043;PMS5003;54902;50.420;18.854;2023-02-22T01:00:43;19;19;14
55043;PMS5003;54902;50.420;18.854;2023-02-22T01:01:15;19;19;14
55043;PMS5003;54902;50.420;18.854;2023-02-22T01:01:46;24;24;18
55043;PMS5003;54902;50.420;18.854;2023-02-22T01:02:17;24;24;18
55043;PMS5003;54902;50.420;18.854;2023-02-22T01:02:47;24;24;18
55043;PMS5003;54902;50.420;18.854;2023-02-22T01:03:21;24;24;18
55043;PMS5003;54902;50.420;18.854;2023-02-22T01:03:52;24;24;18
55043;PMS5003;54902;50.420;18.854;2023-02-22T01:04:26;24;24;18
55043;PMS5003;54902;50.420;18.854;2023-02-22T01:04:57;24;24;18
55043;PMS5003;54902;50.420;18.854;2023-02-22T01:05:28;24;24;18
55043;PMS5003;54902;50.420;18.854;2023-02-22T01:06:00;24;24;18
55043;PMS5003;54902;50.420;18.854;2023-02-22T01:06:31;24;24;18
55043;PMS5003;54902;50.420;18.854;2023-02-22T01:07:03;24;24;18
55043;PMS5003;54902;50.420;18.854;2023-02-22T01:07:34;24;24;18
55043;PMS5003;54902;50.420;18.854;2023-02-22T01:08:06;24;24;18
55043;PMS5003;54902;50.420;18.854;2023-02-22T01:08:44;24;24;18
55043;PMS5003;54902;50.420;18.854;2023-02-22T01:09:16;24;24;18
55043;PMS5003;54902;50.420;18.854;2023-02-22T01:09:47;24;24;18
55043;PMS5003;54902;50.420;18.854;2023-02-22T01:10:19;24;24;18
55043;PMS5003;54902;50.420;18.854;2023-02-22T01:10:52;24;24;18
55043;PMS5003;54902;50.420;18.854;2023-02-22T01:11:23;24;24;18
55043;PMS5003;54902;50.420;18.854;2023-02-22T01:11:54;24;24;18
55043;PMS5003;54902;50.420;18.854;2023-02-22T01:12:26;24;24;18
55043;PMS5003;54902;50.420;18.854;2023-02-22T01:12:58;24;24;18
55043;PMS5003;54902;50.420;18.854;2023-02-22T01:13:30;24;24;18
55043;PMS5003;54902;50.420;18.854;2023-02-22T01:14:03;24;24;18
55043;PMS5003;54902;50.420;18.854;2023-02-22T01:14:35;24;24;18
55043;PMS5003;54902;50.420;18.854;2023-02-22T01:15:07;24;24;18
55043;PMS5003;54902;50.420;18.854;2023-02-22T01:15:41;24;24;18
55043;PMS5003;54902;50.420;18.854;2023-02-22T01:16:14;24;24;18
55043;PMS5003;54902;50.420;18.854;2023-02-22T01:16:45;24;24;18
55043;PMS5003;54902;50.420;18.854;2023-02-22T01:17:16;24;24;18
55043;PMS5003;54902;50.420;18.854;2023-02-22T01:17:47;24;24;18
55043;PMS5003;54902;50.420;18.854;2023-02-22T01:18:19;15;15;12
55043;PMS5003;54902;50.420;18.854;2023-02-22T01:18:52;15;15;12
55043;PMS5003;54902;50.420;18.854;2023-02-22T01:19:26;15;15;12
55043;PMS5003;54902;50.420;18.854;2023-02-22T01:19:57;15;15;12
55043;PMS5003;54902;50.420;18.854;2023-02-22T01:20:28;15;15;12
55043;PMS5003;54902;50.420;18.854;2023-02-22T01:20:59;15;15;12
55043;PMS5003;54902;50.420;18.854;2023-02-22T01:21:30;15;15;12
55043;PMS5003;54902;50.420;18.854;2023-02-22T01:22:01;15;15;12
55043;PMS5003;54902;50.420;18.854;2023-02-22T01:22:35;24;23;17
55043;PMS5003;54902;50.420;18.854;2023-02-22T01:23:06;24;23;17
55043;PMS5003;54902;50.420;18.854;2023-02-22T01:23:39;24;23;17
55043;PMS5003;54902;50.420;18.854;2023-02-22T01:24:10;24;23;17
55043;PMS5003;54902;50.420;18.854;2023-02-22T01:24:48;24;23;17
55043;PMS5003;54902;50.420;18.854;2023-02-22T01:25:21;24;23;17
55043;PMS5003;54902;50.420;18.854;2023-02-22T01:25:54;24;23;17
55043;PMS5003;54902;50.420;18.854;2023-02-22T01:26:25;24;23;17
55043;PMS5003;54902;50.420;18.854;2023-02-22T01:26:56;24;23;17
55043;PMS5003;54902;50.420;18.854;2023-02-22T01:27:27;24;23;17
55043;PMS5003;54902;50.420;18.854;2023-02-22T01:27:58;25;24;18
55043;PMS5003;54902;50.420;18.854;2023-02-22T01:28:31;25;24;18
55043;PMS5003;54902;50.420;18.854;2023-02-22T01:29:02;25;24;18
55043;PMS5003;54902;50.420;18.854;2023-02-22T01:29:33;13;13;9
55043;PMS5003;54902;50.420;18.854;2023-02-22T01:30:05;13;13;9
55043;PMS5003;54902;50.420;18.854;2023-02-22T01:30:37;13;13;9
55043;PMS5003;54902;50.420;18.854;2023-02-22T01:31:09;13;13;9
55043;PMS5003;54902;50.420;18.854;2023-02-22T01:31:42;13;13;9
55043;PMS5003;54902;50.420;18.854;2023-02-22T01:32:18;13;13;9
55043;PMS5003;54902;50.420;18.854;2023-02-22T01:32:49;13;13;9
55043;PMS5003;54902;50.420;18.854;2023-02-22T01:33:22;22;22;13
55043;PMS5003;54902;50.420;18.854;2023-02-22T01:33:56;22;22;13
55043;PMS5003;54902;50.420;18.854;2023-02-22T01:34:27;22;22;13
55043;PMS5003;54902;50.420;18.854;2023-02-22T01:34:59;22;22;13
55043;PMS5003;54902;50.420;18.854;2023-02-22T01:35:35;22;22;13
55043;PMS5003;54902;50.420;18.854;2023-02-22T01:36:10;22;22;13
55043;PMS5003;54902;50.420;18.854;2023-02-22T01:36:40;22;22;13
55043;PMS5003;54902;50.420;18.854;2023-02-22T01:37:12;18;18;11
55043;PMS5003;54902;50.420;18.854;2023-02-22T01:37:43;18;18;11
55043;PMS5003;54902;50.420;18.854;2023-02-22T01:38:14;18;18;11
55043;PMS5003;54902;50.420;18.854;2023-02-22T01:38:45;18;18;11
55043;PMS5003;54902;50.420;18.854;2023-02-22T01:39:16;18;18;11
55043;PMS5003;54902;50.420;18.854;2023-02-22T01:39:47;18;18;11
55043;PMS5003;54902;50.420;18.854;2023-02-22T01:40:19;18;18;11
55043;PMS5003;54902;50.420;18.854;2023-02-22T01:40:52;18;18;11
55043;PMS5003;54902;50.420;18.854;2023-02-22T01:41:26;18;18;11
55043;PMS5003;54902;50.420;18.854;2023-02-22T01:41:57;18;18;11
55043;PMS5003;54902;50.420;18.854;2023-02-22T01:42:28;18;18;11
55043;PMS5003;54902;50.420;18.854;2023-02-22T01:43:01;18;18;11
55043;PMS5003;54902;50.420;18.854;2023-02-22T01:43:34;18;18;11
55043;PMS5003;54902;50.420;18.854;2023-02-22T01:45:19;25;25;16
55043;PMS5003;54902;50.420;18.854;2023-02-22T01:46:56;18;18;12
55043;PMS5003;54902;50.420;18.854;2023-02-22T01:47:28;18;18;12
55043;PMS5003;54902;50.420;18.854;2023-02-22T01:49:18;18;18;12
55043;PMS5003;54902;50.420;18.854;2023-02-22T01:49:50;18;18;12
55043;PMS5003;54902;50.420;18.854;2023-02-22T01:50:22;26;26;16
55043;PMS5003;54902;50.420;18.854;2023-02-22T01:51:13;26;26;16
55043;PMS5003;54902;50.420;18.854;2023-02-22T01:51:41;26;26;16
55043;PMS5003;54902;50.420;18.854;2023-02-22T01:52:18;26;26;16
55043;PMS5003;54902;50.420;18.854;2023-02-22T01:52:51;26;26;16
55043;PMS5003;54902;50.420;18.854;2023-02-22T01:53:24;26;26;16
55043;PMS5003;54902;50.420;18.854;2023-02-22T01:54:00;26;26;16
55043;PMS5003;54902;50.420;18.854;2023-02-22T01:54:37;26;26;16
55043;PMS5003;54902;50.420;18.854;2023-02-22T01:55:12;26;26;16
55043;PMS5003;54902;50.420;18.854;2023-02-22T01:55:43;26;26;16
55043;PMS5003;54902;50.420;18.854;2023-02-22T01:56:17;30;30;19
55043;PMS5003;54902;50.420;18.854;2023-02-22T01:56:52;30;30;19
55043;PMS5003;54902;50.420;18.854;2023-02-22T01:57:31;30;30;19
55043;PMS5003;54902;50.420;18.854;2023-02-22T01:58:05;22;22;13
55043;PMS5003;54902;50.420;18.854;2023-02-22T01:58:39;22;22;13
55043;PMS5003;54902;50.420;18.854;2023-02-22T01:59:12;22;22;13
55043;PMS5003;54902;50.420;18.854;2023-02-22T01:59:46;22;22;13
55043;PMS5003;54902;50.420;18.854;2023-02-22T02:00:22;22;22;13
55043;PMS5003;54902;50.420;18.854;2023-02-22T02:00:57;22;22;13
55043;PMS5003;54902;50.420;18.854;2023-02-22T02:01:28;22;22;13
55043;PMS5003;54902;50.420;18.854;2023-02-22T02:02:00;28;28;16
55043;PMS5003;54902;50.420;18.854;2023-02-22T02:02:33;28;28;16
55043;PMS5003;54902;50.420;18.854;2023-02-22T02:03:47;28;28;16
55043;PMS5003;54902;50.420;18.854;2023-02-22T02:04:20;28;28;16
55043;PMS5003;54902;50.420;18.854;2023-02-22T02:04:55;28;28;16
55043;PMS5003;54902;50.420;18.854;2023-02-22T02:05:27;28;28;16
55043;PMS5003;54902;50.420;18.854;2023-02-22T02:06:04;28;28;16
55043;PMS5003;54902;50.420;18.854;2023-02-22T02:06:38;28;28;16
55043;PMS5003;54902;50.420;18.854;2023-02-22T02:07:12;28;28;16
55043;PMS5003;54902;50.420;18.854;2023-02-22T02:07:47;30;30;18
55043;PMS5003;54902;50.420;18.854;2023-02-22T02:08:22;30;30;18
55043;PMS5003;54902;50.420;18.854;2023-02-22T02:09:03;30;30;18
55043;PMS5003;54902;50.420;18.854;2023-02-22T02:09:46;30;30;18
55043;PMS5003;54902;50.420;18.854;2023-02-22T02:10:23;30;30;18
55043;PMS5003;54902;50.420;18.854;2023-02-22T02:10:54;30;30;18
55043;PMS5003;54902;50.420;18.854;2023-02-22T02:11:27;30;30;18
55043;PMS5003;54902;50.420;18.854;2023-02-22T02:11:59;30;30;18
55043;PMS5003;54902;50.420;18.854;2023-02-22T02:12:34;30;30;18
55043;PMS5003;54902;50.420;18.854;2023-02-22T02:13:06;30;30;18
55043;PMS5003;54902;50.420;18.854;2023-02-22T02:13:39;30;30;18
55043;PMS5003;54902;50.420;18.854;2023-02-22T02:14:11;30;30;18
55043;PMS5003;54902;50.420;18.854;2023-02-22T02:14:42;30;30;18
55043;PMS5003;54902;50.420;18.854;2023-02-22T02:15:17;30;30;18
55043;PMS5003;54902;50.420;18.854;2023-02-22T02:15:54;30;30;18
55043;PMS5003;54902;50.420;18.854;2023-02-22T02:16:34;30;30;18
55043;PMS5003;54902;50.420;18.854;2023-02-22T02:17:09;30;30;18
55043;PMS5003;54902;50.420;18.854;2023-02-22T02:17:42;30;30;18
55043;PMS5003;54902;50.420;18.854;2023-02-22T02:18:13;30;30;18
55043;PMS5003;54902;50.420;18.854;2023-02-22T02:18:45;30;30;18
55043;PMS5003;54902;50.420;18.854;2023-02-22T02:22:09;30;30;18
55043;PMS5003;54902;50.420;18.854;2023-02-22T02:25:09;30;30;18
55043;PMS5003;54902;50.420;18.854;2023-02-22T02:25:53;30;30;18
55043;PMS5003;54902;50.420;18.854;2023-02-22T02:32:10;19;19;12
55043;PMS5003;54902;50.420;18.854;2023-02-22T02:32:51;19;19;12
55043;PMS5003;54902;50.420;18.854;2023-02-22T02:33:28;21;21;12
55043;PMS5003;54902;50.420;18.854;2023-02-22T02:34:13;21;21;12
55043;PMS5003;54902;50.420;18.854;2023-02-22T02:34:57;21;21;12
55043;PMS5003;54902;50.420;18.854;2023-02-22T02:35:38;21;21;12
55043;PMS5003;54902;50.420;18.854;2023-02-22T02:37:07;21;21;12
55043;PMS5003;54902;50.420;18.854;2023-02-22T02:41:10;25;25;16
55043;PMS5003;54902;50.420;18.854;2023-02-22T02:41:48;25;25;16
55043;PMS5003;54902;50.420;18.854;2023-02-22T02:42:21;25;25;16
55043;PMS5003;54902;50.420;18.854;2023-02-22T02:43:06;25;25;16
55043;PMS5003;54902;50.420;18.854;2023-02-22T02:45:12;25;25;16
55043;PMS5003;54902;50.420;18.854;2023-02-22T02:45:50;25;25;16
55043;PMS5003;54902;50.420;18.854;2023-02-22T02:46:31;25;25;16
55043;PMS5003;54902;50.420;18.854;2023-02-22T02:47:22;40;40;27
55043;PMS5003;54902;50.420;18.854;2023-02-22T02:47:52;18;17;12
55043;PMS5003;54902;50.420;18.854;2023-02-22T02:48:29;18;17;12
55043;PMS5003;54902;50.420;18.854;2023-02-22T02:50:31;18;17;12
55043;PMS5003;54902;50.420;18.854;2023-02-22T02:51:07;18;17;12
55043;PMS5003;54902;50.420;18.854;2023-02-22T02:51:45;18;17;12
55043;PMS5003;54902;50.420;18.854;2023-02-22T02:52:22;18;17;12
55043;PMS5003;54902;50.420;18.854;2023-02-22T02:52:57;18;17;12
55043;PMS5003;54902;50.420;18.854;2023-02-22T02:53:33;27;27;19
55043;PMS5003;54902;50.420;18.854;2023-02-22T02:54:06;27;27;19
55043;PMS5003;54902;50.420;18.854;2023-02-22T02:54:39;27;27;19
55043;PMS5003;54902;50.420;18.854;2023-02-22T02:55:12;18;18;11
55043;PMS5003;54902;50.420;18.854;2023-02-22T02:55:44;18;18;11
55043;PMS5003;54902;50.420;18.854;2023-02-22T02:56:15;18;18;11
55043;PMS5003;54902;50.420;18.854;2023-02-22T02:56:46;18;18;11
55043;PMS5003;54902;50.420;18.854;2023-02-22T02:57:18;18;18;11
55043;PMS5003;54902;50.420;18.854;2023-02-22T02:57:49;18;18;11
55043;PMS5003;54902;50.420;18.854;2023-02-22T02:58:22;18;18;11
55043;PMS5003;54902;50.420;18.854;2023-02-22T02:58:56;23;22;12
55043;PMS5003;54902;50.420;18.854;2023-02-22T02:59:31;23;22;12
55043;PMS5003;54902;50.420;18.854;2023-02-22T03:00:04;23;22;12
55043;PMS5003;54902;50.420;18.854;2023-02-22T03:00:50;23;22;12
55043;PMS5003;54902;50.420;18.854;2023-02-22T03:03:03;23;22;12
55043;PMS5003;54902;50.420;18.854;2023-02-22T03:03:43;23;22;12
55043;PMS5003;54902;50.420;18.854;2023-02-22T03:05:05;38;34;19
55043;PMS5003;54902;50.420;18.854;2023-02-22T03:09:31;22;22;14
55043;PMS5003;54902;50.420;18.854;2023-02-22T03:11:48;22;22;14
55043;PMS5003;54902;50.420;18.854;2023-02-22T03:14:01;33;33;21
55043;PMS5003;54902;50.420;18.854;2023-02-22T03:14:41;33;33;21
55043;PMS5003;54902;50.420;18.854;2023-02-22T03:16:16;33;33;21
55043;PMS5003;54902;50.420;18.854;2023-02-22T03:17:01;20;20;13
55043;PMS5003;54902;50.420;18.854;2023-02-22T03:17:41;20;20;13
55043;PMS5003;54902;50.420;18.854;2023-02-22T03:18:27;20;20;13
55043;PMS5003;54902;50.420;18.854;2023-02-22T03:19:49;20;20;13
55043;PMS5003;54902;50.420;18.854;2023-02-22T03:20:28;21;21;13
55043;PMS5003;54902;50.420;18.854;2023-02-22T03:21:07;21;21;13
55043;PMS5003;54902;50.420;18.854;2023-02-22T03:21:49;21;21;13
55043;PMS5003;54902;50.420;18.854;2023-02-22T03:22:27;15;15;9
55043;PMS5003;54902;50.420;18.854;2023-02-22T03:23:03;15;15;9
55043;PMS5003;54902;50.420;18.854;2023-02-22T03:23:49;15;15;9
55043;PMS5003;54902;50.420;18.854;2023-02-22T03:24:32;15;15;9
55043;PMS5003;54902;50.420;18.854;2023-02-22T03:25:58;15;15;9
55043;PMS5003;54902;50.420;18.854;2023-02-22T03:26:43;15;15;9
55043;PMS5003;54902;50.420;18.854;2023-02-22T03:28:04;20;20;14
55043;PMS5003;54902;50.420;18.854;2023-02-22T03:28:41;20;20;14
55043;PMS5003;54902;50.420;18.854;2023-02-22T03:29:16;20;20;14
55043;PMS5003;54902;50.420;18.854;2023-02-22T03:29:50;20;20;14
55043;PMS5003;54902;50.420;18.854;2023-02-22T03:31:57;20;20;14
55043;PMS5003;54902;50.420;18.854;2023-02-22T03:32:32;20;20;14
55043;PMS5003;54902;50.420;18.854;2023-02-22T03:33:09;20;20;14
55043;PMS5003;54902;50.420;18.854;2023-02-22T03:33:45;22;22;16
55043;PMS5003;54902;50.420;18.854;2023-02-22T03:34:23;22;22;16
55043;PMS5003;54902;50.420;18.854;2023-02-22T03:34:58;22;22;16
55043;PMS5003;54902;50.420;18.854;2023-02-22T03:37:01;22;22;16
55043;PMS5003;54902;50.420;18.854;2023-02-22T03:37:44;22;22;16
55043;PMS5003;54902;50.420;18.854;2023-02-22T03:38:18;22;22;16
55043;PMS5003;54902;50.420;18.854;2023-02-22T03:38:51;22;22;16
55043;PMS5003;54902;50.420;18.854;2023-02-22T03:39:27;22;22;16
55043;PMS5003;54902;50.420;18.854;2023-02-22T03:40:02;22;22;16
55043;PMS5003;54902;50.420;18.854;2023-02-22T03:40:44;22;22;16
55043;PMS5003;54902;50.420;18.854;2023-02-22T03:41:21;22;22;16
55043;PMS5003;54902;50.420;18.854;2023-02-22T03:41:54;22;22;16
55043;PMS5003;54902;50.420;18.854;2023-02-22T03:42:32;22;22;16
55043;PMS5003;54902;50.420;18.854;2023-02-22T03:43:07;22;22;16
55043;PMS5003;54902;50.420;18.854;2023-02-22T03:43:47;22;22;16
55043;PMS5003;54902;50.420;18.854;2023-02-22T03:44:27;22;22;16
55043;PMS5003;54902;50.420;18.854;2023-02-22T03:45:02;22;22;16
55043;PMS5003;54902;50.420;18.854;2023-02-22T03:45:36;22;22;16
55043;PMS5003;54902;50.420;18.854;2023-02-22T03:46:12;22;22;16
55043;PMS5003;54902;50.420;18.854;2023-02-22T03:46:44;22;22;16
55043;PMS5003;54902;50.420;18.854;2023-02-22T03:47:21;22;22;16
55043;PMS5003;54902;50.420;18.854;2023-02-22T03:50:50;17;17;12
55043;PMS5003;54902;50.420;18.854;2023-02-22T03:51:22;17;17;12
55043;PMS5003;54902;50.420;18.854;2023-02-22T03:51:54;17;17;12
55043;PMS5003;54902;50.420;18.854;2023-02-22T03:52:25;10;10;6
55043;PMS5003;54902;50.420;18.854;2023-02-22T03:52:56;10;10;6
55043;PMS5003;54902;50.420;18.854;2023-02-22T03:53:28;10;10;6
55043;PMS5003;54902;50.420;18.854;2023-02-22T03:54:02;10;10;6
55043;PMS5003;54902;50.420;18.854;2023-02-22T03:54:35;10;10;6
55043;PMS5003;54902;50.420;18.854;2023-02-22T03:55:06;10;10;6
55043;PMS5003;54902;50.420;18.854;2023-02-22T03:55:40;10;10;6
55043;PMS5003;54902;50.420;18.854;2023-02-22T03:56:12;10;10;6
55043;PMS5003;54902;50.420;18.854;2023-02-22T03:56:52;10;10;6
55043;PMS5003;54902;50.420;18.854;2023-02-22T03:57:28;10;10;6
55043;PMS5003;54902;50.420;18.854;2023-02-22T03:58:05;13;13;9
55043;PMS5003;54902;50.420;18.854;2023-02-22T03:58:40;13;13;9
55043;PMS5003;54902;50.420;18.854;2023-02-22T03:59:16;13;13;9
55043;PMS5003;54902;50.420;18.854;2023-02-22T03:59:53;13;13;9
55043;PMS5003;54902;50.420;18.854;2023-02-22T04:00:28;13;13;9
55043;PMS5003;54902;50.420;18.854;2023-02-22T04:01:01;13;13;9
55043;PMS5003;54902;50.420;18.854;2023-02-22T04:01:33;13;13;9
55043;PMS5003;54902;50.420;18.854;2023-02-22T04:02:04;13;13;9
55043;PMS5003;54902;50.420;18.854;2023-02-22T04:02:35;13;13;9
55043;PMS5003;54902;50.420;18.854;2023-02-22T04:03:06;13;13;9
55043;PMS5003;54902;50.420;18.854;2023-02-22T04:03:37;13;13;9
55043;PMS5003;54902;50.420;18.854;2023-02-22T04:04:11;13;13;9
55043;PMS5003;54902;50.420;18.854;2023-02-22T04:04:42;13;13;9
55043;PMS5003;54902;50.420;18.854;2023-02-22T04:05:13;13;13;9
55043;PMS5003;54902;50.420;18.854;2023-02-22T04:05:44;13;13;9
55043;PMS5003;54902;50.420;18.854;2023-02-22T04:06:16;13;13;9
55043;PMS5003;54902;50.420;18.854;2023-02-22T04:06:47;13;13;9
55043;PMS5003;54902;50.420;18.854;2023-02-22T04:07:19;13;13;9
55043;PMS5003;54902;50.420;18.854;2023-02-22T04:07:53;12;12;9
55043;PMS5003;54902;50.420;18.854;2023-02-22T04:08:28;12;12;9
55043;PMS5003;54902;50.420;18.854;2023-02-22T04:08:59;25;25;13
55043;PMS5003;54902;50.420;18.854;2023-02-22T04:09:30;25;25;13
55043;PMS5003;54902;50.420;18.854;2023-02-22T04:10:02;25;25;13
55043;PMS5003;54902;50.420;18.854;2023-02-22T04:10:37;25;25;13
55043;PMS5003;54902;50.420;18.854;2023-02-22T04:11:08;25;25;13
55043;PMS5003;54902;50.420;18.854;2023-02-22T04:11:39;27;26;14
55043;PMS5003;54902;50.420;18.854;2023-02-22T04:12:10;27;26;14
55043;PMS5003;54902;50.420;18.854;2023-02-22T04:12:41;27;26;14
55043;PMS5003;54902;50.420;18.854;2023-02-22T04:13:12;27;26;14
55043;PMS5003;54902;50.420;18.854;2023-02-22T04:13:43;27;26;14
55043;PMS5003;54902;50.420;18.854;2023-02-22T04:14:14;30;26;15
55043;PMS5003;54902;50.420;18.854;2023-02-22T04:14:46;30;26;15
55043;PMS5003;54902;50.420;18.854;2023-02-22T04:15:18;30;26;15
55043;PMS5003;54902;50.420;18.854;2023-02-22T04:15:52;30;26;15